createdAt,value
2019-02-04T00:05:45.851Z,2.57
2019-02-04T00:11:40.830Z,2.57
2019-02-04T00:17:35.860Z,1.92
2019-02-04T00:23:30.850Z,2.55
2019-02-04T00:29:25.852Z,2.08
2019-02-04T00:35:20.863Z,2.45
2019-02-04T00:41:15.872Z,2.73
2019-02-04T00:47:10.858Z,2.13
2019-02-04T00:53:05.874Z,2.18
2019-02-04T00:59:00.885Z,2.71
2019-02-04T01:04:55.870Z,3.29
2019-02-04T01:10:50.894Z,2.93
2019-02-04T01:16:45.893Z,2.95
2019-02-04T01:22:40.903Z,3.2
2019-02-04T01:28:35.948Z,3.66
2019-02-04T01:34:30.920Z,4.49
2019-02-04T01:40:25.914Z,4.33
2019-02-04T01:46:20.914Z,4.97
2019-02-04T01:52:15.929Z,5.4
2019-02-04T01:58:10.920Z,5.66
2019-02-04T02:04:05.938Z,4.86
2019-02-04T02:10:00.989Z,4.6
2019-02-04T02:15:56.003Z,4.42
2019-02-04T02:21:50.946Z,5.51
2019-02-04T02:27:45.986Z,4.67
2019-02-04T02:33:40.998Z,4.22
2019-02-04T02:39:35.959Z,4.12
2019-02-04T02:45:31.104Z,4.39
2019-02-04T02:51:25.954Z,4.04
2019-02-04T02:57:20.980Z,3.83
2019-02-04T03:03:15.972Z,3.5
2019-02-04T03:09:10.964Z,4.39
2019-02-04T03:15:05.973Z,4.06
2019-02-04T03:21:00.974Z,4.08
2019-02-04T03:26:55.982Z,3.82
2019-02-04T03:30:50.354Z,4.42
2019-02-04T03:35:30.965Z,5.01
2019-02-04T04:36:36.325Z,5.81
2019-02-04T04:42:31.294Z,4.88
2019-02-04T04:48:26.882Z,4.67
2019-02-04T04:50:21.591Z,5.85
2019-02-04T04:56:16.594Z,5.06
2019-02-04T05:02:11.578Z,5.2
2019-02-04T05:08:06.570Z,4.69
2019-02-04T05:14:01.573Z,3.98
2019-02-04T05:19:56.575Z,4.33
2019-02-04T05:25:51.584Z,3.8
2019-02-04T05:31:46.607Z,4.3
2019-02-04T05:37:41.628Z,3.67
2019-02-04T05:43:36.621Z,4.48
2019-02-04T05:49:31.645Z,3.67
2019-02-04T05:55:26.613Z,3.87
2019-02-04T06:01:21.632Z,3.45
2019-02-04T06:07:16.621Z,2.22
2019-02-04T06:13:11.650Z,2.16
2019-02-04T06:19:06.642Z,2
2019-02-04T06:25:01.649Z,1.62
2019-02-04T06:30:56.615Z,1.6
2019-02-04T06:35:55.687Z,1.96
2019-02-04T06:41:50.702Z,1.61
2019-02-04T06:44:11.737Z,2.47
2019-02-04T06:50:06.717Z,1.74
2019-02-04T06:51:16.513Z,2.29
2019-02-04T06:57:11.498Z,1.83
2019-02-04T07:03:06.532Z,2.2
2019-02-04T07:08:49.025Z,3.5
2019-02-04T07:10:59.021Z,4.52
2019-02-04T07:25:02.300Z,7.83
2019-02-04T07:30:57.260Z,5.46
2019-02-04T07:36:15.541Z,6.62
2019-02-04T07:42:10.562Z,4.26
2019-02-04T07:49:54.597Z,5.2
2019-02-04T07:58:43.626Z,5.95
2019-02-04T08:04:38.629Z,4.98
2019-02-04T08:10:33.646Z,4.13
2019-02-04T08:16:28.619Z,3.83
2019-02-04T08:22:23.652Z,3.62
2019-02-04T08:26:48.927Z,4.22
2019-02-04T08:33:03.962Z,4.33
2019-02-04T08:38:58.950Z,3.02
2019-02-04T08:46:12.729Z,4.16
2019-02-04T08:50:53.551Z,3.8
2019-02-04T11:48:16.956Z,4.47
2019-02-04T11:54:11.911Z,3.47
2019-02-04T12:00:06.977Z,3.47
2019-02-04T12:06:01.943Z,3.63
2019-02-04T12:11:56.959Z,3.3
2019-02-04T12:17:51.946Z,3.32
2019-02-04T12:23:46.964Z,3.03
2019-02-04T12:29:41.936Z,3.02
2019-02-04T12:35:36.963Z,2.85
2019-02-04T12:41:31.954Z,3.39
2019-02-04T12:47:27.096Z,3.65
2019-02-04T12:53:22.054Z,4.12
2019-02-04T12:59:16.989Z,3.38
2019-02-04T13:05:11.986Z,3.66
2019-02-04T13:11:07.008Z,4.28
2019-02-04T13:17:02.015Z,4.04
2019-02-04T13:22:57.006Z,4.48
2019-02-04T13:28:52.015Z,4.21
2019-02-04T13:34:47.029Z,4.7
2019-02-04T13:40:44.323Z,3.74
2019-02-04T13:46:37.023Z,3.9
2019-02-04T13:52:32.051Z,4.07
2019-02-04T13:58:27.053Z,4.08
2019-02-04T14:04:22.054Z,4
2019-02-04T14:10:17.061Z,3.65
2019-02-04T14:16:12.062Z,3.83
2019-02-04T14:22:09.122Z,4.03
2019-02-04T14:28:03.584Z,3.18
2019-02-04T14:33:58.119Z,3.69
2019-02-04T14:39:52.077Z,4.1
2019-02-04T14:45:47.107Z,3.42
2019-02-04T14:51:42.095Z,3.89
2019-02-04T14:57:37.134Z,3.8
2019-02-04T15:03:32.127Z,3.33
2019-02-04T15:27:38.005Z,3.75
2019-02-04T15:33:32.976Z,3.5
2019-02-04T15:39:27.990Z,3.6
2019-02-04T15:45:23.000Z,4
2019-02-04T15:51:18.009Z,3.51
2019-02-04T15:57:13.055Z,3.38
2019-02-04T16:03:08.016Z,3
2019-02-04T16:09:03.064Z,3.32
2019-02-04T16:14:58.077Z,2.76
2019-02-04T16:20:53.033Z,3.32
2019-02-04T16:26:48.045Z,2.98
2019-02-04T16:32:43.059Z,3.37
2019-02-04T16:38:38.030Z,2.96
2019-02-04T16:44:33.060Z,2.72
2019-02-04T16:50:28.038Z,2.71
2019-02-04T16:56:23.073Z,2.7
2019-02-04T17:02:18.087Z,2.81
2019-02-04T17:08:13.111Z,3.18
2019-02-04T17:14:08.060Z,3.06
2019-02-04T17:20:03.072Z,3.4
2019-02-04T17:25:59.689Z,3.24
2019-02-04T17:31:53.107Z,3.27
2019-02-04T17:37:48.086Z,3.61
2019-02-04T17:43:43.126Z,4.18
2019-02-04T17:49:38.138Z,3.95
2019-02-04T17:55:33.101Z,5.47
2019-02-04T18:01:28.148Z,5.56
2019-02-04T18:07:23.125Z,4.82
2019-02-04T18:13:18.117Z,5.74
2019-02-04T18:19:13.140Z,4.84
2019-02-04T18:25:08.143Z,5.29
2019-02-04T18:31:03.140Z,5.15
2019-02-04T18:36:58.174Z,4.64
2019-02-04T18:42:53.144Z,4.11
2019-02-04T18:48:48.222Z,3.9
2019-02-04T18:54:43.165Z,5.05
2019-02-04T19:00:38.163Z,5.33
2019-02-04T19:06:33.181Z,4.69
2019-02-04T19:12:28.183Z,5.24
2019-02-04T19:18:23.191Z,4.85
2019-02-04T19:24:18.234Z,4.65
2019-02-04T19:30:13.238Z,4.05
2019-02-04T19:36:08.205Z,3.89
2019-02-04T19:42:03.233Z,3.77
2019-02-04T19:47:58.198Z,3.59
2019-02-04T19:53:53.211Z,3.37
2019-02-04T19:59:48.199Z,3.71
2019-02-04T20:05:43.229Z,4.16
2019-02-04T20:11:38.240Z,2.97
2019-02-04T20:17:33.241Z,3.13
2019-02-04T20:23:28.240Z,3.18
2019-02-04T20:29:23.238Z,3.27
2019-02-04T20:35:18.246Z,2.79
2019-02-04T20:41:13.241Z,2.6
2019-02-04T20:47:08.277Z,2.92
2019-02-04T20:53:03.283Z,3.02
2019-02-04T20:58:58.323Z,3.36
2019-02-04T21:04:53.278Z,2.36
2019-02-04T21:10:48.280Z,3.58
2019-02-04T21:16:43.312Z,2.91
2019-02-04T21:22:38.285Z,2.96
2019-02-04T21:28:33.294Z,3.23
2019-02-04T21:34:28.303Z,3.16
2019-02-04T21:40:23.332Z,3.23
2019-02-04T21:46:18.338Z,3.07
2019-02-04T21:52:13.304Z,2.83
2019-02-04T21:58:08.312Z,2.98
2019-02-04T22:04:03.328Z,3.22
2019-02-04T22:09:58.350Z,2.88
2019-02-04T22:15:53.348Z,2.88
2019-02-04T22:21:48.343Z,2.92
2019-02-04T22:27:43.334Z,3.07
2019-02-04T22:33:38.339Z,2.52
2019-02-04T22:39:33.337Z,2.81
2019-02-04T22:45:28.402Z,2.53
2019-02-04T22:51:23.380Z,3.26
2019-02-04T22:57:18.371Z,2.64
2019-02-04T23:03:13.398Z,2.36
2019-02-04T23:09:08.409Z,2.49
2019-02-04T23:15:03.373Z,2.61
2019-02-04T23:20:58.410Z,2.72
2019-02-04T23:26:53.405Z,2.48
2019-02-04T23:32:48.433Z,2.51
2019-02-04T23:38:43.385Z,2.61
2019-02-04T23:44:38.395Z,2.79
2019-02-04T23:50:33.400Z,2.77
2019-02-04T23:56:28.452Z,2.95
